Arsen'yev, Russia
Current Conditions -  °F | °C
As of 2:30 PM on Sunday 26 Oct 2014 (Local Time) from UHWW Reporting Station
Broken Clouds Broken Clouds  
Wind Chill: 54°   Ceiling: 10000
Heat Index: 54°   Visibility: 6mi
Dew Point: 43°   Wind: 9mph
Humidity: 67%   Direction: 330°NNW
Pressure: 29.8"   Gusts: NA
Location:  44.1°N, 133.15°E
Report Text: UHWW 260430Z 33004MPS 9999 BKN100 12/06 Q1009 NOSIG RMK MT OBSQFE755/1007 2529//60
Loading
Personal Weather Stations






























Interactive Weather Map
Tropical Storm Tracking
New forecast layout! Learn more

10-Day Weather Forecast

Advertisements
Track Severe Weather on mobile